Terminal Aerodrome Forecast
Issued by NWS Houston/Galveston, TX

Home | Current Version | Previous Version | Text Only | Print | Product List | Glossary On
Versions: 1 2 3 4 5 6 7 8 9 10 11 12 13 14 15 16 17 18 19 20 21 22 23 24 25 26 27 28 29 30 31 32 33 34 35 36 37 38 39 40 41 42 43 44 45 46 47 48 49 50
000
FTUS44 KHGX 292216 AAA
TAFGLS
TAF AMD
KGLS 292216Z 2922/3018 15020KT 3SM HZ FEW015 BKN022
     FM300600 16026G32KT 3SM BR VCSH BKN015
      TEMPO 3008/3011 34025KT TSRA BKN015CB
     FM301100 36025G33KT P6SM -RA SCT025 BKN050
     FM301200 33020G29KT P6SM BKN040 OVC080
     FM301700 32013G27KT P6SM SCT080 BKN250=

USA.gov is the U.S. government's official web portal to all federal, state and local government web resources and services.